Time;durP1;ratioP1;P1;durP2;ratioP2;P2;SDS_P1;SDS_P2;PMS_P1;PMS_P2;Temp;Humidity;BMP_temperature;BMP_pressure;BME280_temperature;BME280_humidity;BME280_pressure;Samples;Min_cycle;Max_cycle;Signal;HPM_P1;HPM_P2
2023/11/25 00:00:40;;;;;;;0.95;0.57;;;;;;;1.45;100.00;92166.72;2105560;28;20028;-77
2023/11/25 00:01:41;;;;;;;2.85;0.90;;;;;;;1.55;100.00;92165.19;2093155;28;21457;-79
2023/11/25 00:02:44;;;;;;;1.48;0.50;;;;;;;1.34;100.00;92160.72;2105996;28;20094;-78
2023/11/25 00:03:45;;;;;;;2.75;0.70;;;;;;;1.38;100.00;92168.63;2095415;28;20796;-78
2023/11/25 00:04:46;;;;;;;1.75;0.90;;;;;;;1.27;100.00;92166.00;2082064;28;20020;-78
2023/11/25 00:05:48;;;;;;;1.02;0.60;;;;;;;1.45;100.00;92173.88;2085589;28;20448;-80
2023/11/25 00:06:49;;;;;;;1.20;0.90;;;;;;;1.62;100.00;92169.66;2084157;28;20307;-78
2023/11/25 00:08:26;;;;;;;3.53;0.80;;;;;;;1.43;100.00;92174.25;2105821;28;20054;-78
2023/11/25 00:09:27;;;;;;;4.85;1.40;;;;;;;1.22;100.00;92182.94;2104206;28;20589;-78
2023/11/25 00:10:28;;;;;;;2.58;1.05;;;;;;;1.38;100.00;92171.25;2071343;28;20039;-79
2023/11/25 00:11:29;;;;;;;3.33;1.02;;;;;;;1.40;100.00;92174.25;2097135;28;20775;-79
2023/11/25 00:12:30;;;;;;;0.70;0.57;;;;;;;1.26;100.00;92182.94;2084880;28;20031;-79
2023/11/25 00:13:31;;;;;;;3.25;0.55;;;;;;;1.23;100.00;92181.84;2110908;28;20028;-79
2023/11/25 00:14:32;;;;;;;4.63;0.90;;;;;;;1.31;100.00;92172.00;2082903;28;20423;-78
2023/11/25 00:15:33;;;;;;;6.65;1.02;;;;;;;1.39;100.00;92167.50;2092731;28;20028;-79
2023/11/25 00:16:34;;;;;;;3.30;1.02;;;;;;;1.32;100.00;92157.75;2104673;28;20027;-77
2023/11/25 00:17:37;;;;;;;2.17;0.77;;;;;;;1.43;100.00;92174.25;2092115;28;20870;-80
2023/11/25 00:18:38;;;;;;;1.92;0.82;;;;;;;1.36;100.00;92166.38;2104371;28;20497;-78
2023/11/25 00:19:39;;;;;;;1.42;0.73;;;;;;;1.48;100.00;92168.59;2085088;28;20057;-80
2023/11/25 00:20:40;;;;;;;3.70;1.00;;;;;;;1.45;100.00;92160.72;2105138;28;20088;-78
2023/11/25 00:21:41;;;;;;;3.75;1.27;;;;;;;1.51;100.00;92157.28;2082295;28;20698;-80
2023/11/25 00:22:42;;;;;;;2.72;1.17;;;;;;;1.57;100.00;92164.78;2085885;28;20954;-81
2023/11/25 00:23:43;;;;;;;1.70;0.82;;;;;;;1.58;100.00;92177.59;2105291;28;20043;-77
2023/11/25 00:24:44;;;;;;;4.70;0.80;;;;;;;1.45;100.00;92173.88;2082066;28;20463;-78
2023/11/25 00:29:58;;;;;;;1.95;0.80;;;;;;;1.36;100.00;92184.03;2093851;27;20064;-79
2023/11/25 00:33:16;;;;;;;0.98;0.80;;;;;;;1.21;100.00;92199.13;2090231;27;20032;-80
2023/11/25 00:34:17;;;;;;;1.52;0.70;;;;;;;1.00;100.00;92176.97;2091159;27;20039;-80
2023/11/25 00:35:18;;;;;;;2.40;1.20;;;;;;;1.16;100.00;92181.09;2091127;28;20214;-79
2023/11/25 00:36:20;;;;;;;3.42;0.80;;;;;;;1.29;100.00;92194.59;2087490;28;20061;-78
2023/11/25 00:37:22;;;;;;;4.88;0.88;;;;;;;1.32;100.00;92186.69;2104249;28;20469;-78
2023/11/25 00:39:11;;;;;;;4.32;1.00;;;;;;;1.08;100.00;92187.50;2081570;28;20065;-78
2023/11/25 00:40:19;;;;;;;1.48;0.70;;;;;;;0.98;100.00;92197.66;2083604;28;20016;-77
2023/11/25 00:41:22;;;;;;;4.20;1.00;;;;;;;1.15;100.00;92190.88;2103610;28;20028;-78
2023/11/25 00:42:23;;;;;;;3.70;0.82;;;;;;;1.00;100.00;92211.16;2094849;28;20116;-79
2023/11/25 00:43:24;;;;;;;3.42;0.90;;;;;;;1.22;100.00;92196.09;2091307;28;20047;-79
2023/11/25 00:44:25;;;;;;;2.72;0.93;;;;;;;1.12;100.00;92191.63;2104413;28;20039;-79
2023/11/25 00:45:26;;;;;;;6.18;1.20;;;;;;;1.11;100.00;92200.66;2090888;28;20074;-78
2023/11/25 00:46:27;;;;;;;2.72;0.82;;;;;;;1.04;100.00;92192.00;2102008;28;20032;-79
2023/11/25 00:47:29;;;;;;;2.83;0.95;;;;;;;1.05;100.00;92181.09;2065036;28;20524;-79
2023/11/25 00:48:35;;;;;;;4.32;1.02;;;;;;;1.09;100.00;92188.97;2085047;28;20083;-79
2023/11/25 00:49:38;;;;;;;7.15;1.05;;;;;;;1.16;100.00;92181.09;2098812;28;20479;-80
2023/11/25 00:50:42;;;;;;;2.17;0.60;;;;;;;1.26;100.00;92196.84;2075810;28;20086;-78
2023/11/25 00:52:27;;;;;;;6.55;1.45;;;;;;;1.23;100.00;92186.34;2090827;28;20020;-79
2023/11/25 00:53:28;;;;;;;1.67;0.70;;;;;;;1.16;100.00;92183.72;2103640;28;20020;-80
2023/11/25 00:54:29;;;;;;;5.53;0.73;;;;;;;1.11;100.00;92178.84;2091615;28;20028;-80
2023/11/25 00:55:30;;;;;;;6.70;1.35;;;;;;;1.19;100.00;92186.34;2104486;28;20749;-79
2023/11/25 00:56:31;;;;;;;3.58;1.10;;;;;;;1.30;100.00;92175.03;2079127;28;20024;-78
2023/11/25 00:57:32;;;;;;;5.68;1.30;;;;;;;1.38;100.00;92185.16;2102393;28;21586;-79
2023/11/25 00:58:33;;;;;;;3.00;1.05;;;;;;;1.38;100.00;92182.53;2082589;28;20061;-79
2023/11/25 00:59:34;;;;;;;4.10;0.93;;;;;;;1.26;100.00;92182.94;2085164;28;20078;-78
2023/11/25 01:00:35;;;;;;;3.78;1.17;;;;;;;1.26;100.00;92185.56;2104227;28;20028;-79
2023/11/25 01:01:36;;;;;;;6.25;0.77;;;;;;;1.53;100.00;92185.88;2084234;28;20757;-80
2023/11/25 01:02:37;;;;;;;2.25;0.70;;;;;;;1.35;100.00;92185.19;2094816;28;20119;-78
2023/11/25 01:03:38;;;;;;;3.58;0.90;;;;;;;1.38;100.00;92187.81;2077728;28;20051;-80
2023/11/25 01:04:40;;;;;;;2.60;0.85;;;;;;;1.48;100.00;92187.00;2085634;28;20055;-79
2023/11/25 01:05:41;;;;;;;5.90;1.20;;;;;;;1.44;100.00;92188.16;2104188;28;20027;-78
2023/11/25 01:06:47;;;;;;;4.30;0.93;;;;;;;1.50;100.00;92195.31;2092680;28;20035;-79
2023/11/25 01:07:47;;;;;;;2.55;1.02;;;;;;;1.52;100.00;92192.28;2103630;28;20120;-82
2023/11/25 01:08:49;;;;;;;4.15;1.00;;;;;;;1.55;100.00;92201.31;2090768;28;20036;-80
2023/11/25 01:09:50;;;;;;;4.43;0.73;;;;;;;1.50;100.00;92195.31;2094252;28;20103;-80
2023/11/25 01:10:51;;;;;;;3.42;0.93;;;;;;;1.39;100.00;92178.03;2103921;28;20070;-80
2023/11/25 01:11:54;;;;;;;5.13;1.20;;;;;;;1.22;100.00;92182.19;2074859;28;20071;-78
2023/11/25 01:13:17;;;;;;;4.03;0.90;;;;;;;1.49;100.00;92198.28;2104609;28;20030;-80
2023/11/25 01:14:17;;;;;;;3.15;0.90;;;;;;;1.22;100.00;92192.72;2102279;28;21346;-79
2023/11/25 01:15:19;;;;;;;5.78;0.80;;;;;;;1.20;100.00;92195.00;2081164;28;20078;-79
2023/11/25 01:16:20;;;;;;;2.03;0.70;;;;;;;1.11;100.00;92168.31;2103266;28;20036;-79
2023/11/25 01:17:24;;;;;;;4.40;0.80;;;;;;;1.45;100.00;92192.31;1997392;28;20475;-78
2023/11/25 01:19:11;;;;;;;4.65;0.90;;;;;;;1.38;100.00;92200.97;2001120;28;20042;-78
2023/11/25 01:20:13;;;;;;;7.00;0.90;;;;;;;1.55;100.00;92199.44;2018956;28;22203;-80
2023/11/25 01:21:14;;;;;;;1.60;0.93;;;;;;;1.54;100.00;92207.69;2021790;28;23423;-78
2023/11/25 01:22:15;;;;;;;3.90;0.85;;;;;;;1.45;100.00;92208.84;2033689;28;20032;-80
2023/11/25 01:23:16;;;;;;;4.10;0.70;;;;;;;1.67;100.00;92208.81;2026988;28;20622;-80
2023/11/25 01:24:17;;;;;;;4.15;1.15;;;;;;;1.43;100.00;92218.25;2034142;28;20078;-80
2023/11/25 01:25:18;;;;;;;2.28;0.88;;;;;;;1.57;100.00;92220.84;2045988;28;20426;-79
2023/11/25 01:26:19;;;;;;;3.35;0.90;;;;;;;1.67;100.00;92214.81;2057762;28;20118;-78
2023/11/25 01:27:23;;;;;;;6.40;0.95;;;;;;;1.44;100.00;92217.13;2057753;28;20120;-79
2023/11/25 01:28:24;;;;;;;4.28;1.15;;;;;;;1.29;100.00;92218.28;2054376;28;20036;-77
2023/11/25 01:29:25;;;;;;;4.72;1.10;;;;;;;1.33;100.00;92221.66;2062463;28;20485;-79
2023/11/25 01:30:26;;;;;;;4.63;1.20;;;;;;;1.38;100.00;92226.53;2070848;27;20058;-80
2023/11/25 01:31:27;;;;;;;4.43;0.80;;;;;;;1.42;100.00;92224.66;2081286;28;20042;-80
2023/11/25 01:32:28;;;;;;;5.47;0.90;;;;;;;1.26;100.00;92233.69;2089979;28;20589;-79
2023/11/25 01:33:29;;;;;;;2.05;0.70;;;;;;;1.42;100.00;92225.41;2098080;28;20046;-79
2023/11/25 01:34:29;;;;;;;2.60;0.82;;;;;;;1.41;100.00;92228.44;2100794;28;20032;-80
2023/11/25 01:35:30;;;;;;;3.67;1.00;;;;;;;1.33;100.00;92234.84;2113094;27;20027;-80
2023/11/25 01:36:32;;;;;;;5.05;0.80;;;;;;;1.55;100.00;92238.94;2112764;28;21440;-78
2023/11/25 01:37:33;;;;;;;1.17;0.60;;;;;;;1.43;100.00;92237.44;2113981;27;20038;-79
2023/11/25 01:38:34;;;;;;;4.68;0.95;;;;;;;1.43;100.00;92236.69;2104792;28;20036;-77
2023/11/25 01:39:35;;;;;;;1.98;0.80;;;;;;;1.42;100.00;92238.56;2096624;28;20040;-79
2023/11/25 01:40:37;;;;;;;3.72;0.90;;;;;;;1.49;100.00;92228.03;2112573;28;20678;-78
2023/11/25 01:41:37;;;;;;;4.10;0.80;;;;;;;1.47;100.00;92238.19;2111884;28;20019;-78
2023/11/25 01:42:38;;;;;;;3.70;0.75;;;;;;;1.46;100.00;92233.31;2111274;28;20027;-80
2023/11/25 01:43:39;;;;;;;6.57;0.90;;;;;;;1.48;100.00;92228.41;2108789;28;20118;-79
2023/11/25 01:44:40;;;;;;;1.15;0.63;;;;;;;1.63;100.00;92239.66;2090235;28;20508;-78
2023/11/25 01:45:42;;;;;;;4.15;1.00;;;;;;;1.61;100.00;92247.94;2016801;28;20031;-79
2023/11/25 01:46:43;;;;;;;5.70;1.10;;;;;;;1.65;100.00;92253.19;2028191;28;20035;-78
2023/11/25 01:47:44;;;;;;;1.83;0.70;;;;;;;1.70;100.00;92247.53;2032308;28;20717;-77
2023/11/25 01:52:41;;;;;;;5.20;0.80;;;;;;;1.44;100.00;92260.00;2053837;28;20629;-80
2023/11/25 01:53:42;;;;;;;2.45;0.60;;;;;;;1.49;100.00;92254.38;2056298;28;20055;-78
2023/11/25 01:54:43;;;;;;;1.80;0.70;;;;;;;1.60;100.00;92249.06;2058518;28;20077;-75
2023/11/25 01:55:44;;;;;;;4.93;0.93;;;;;;;1.42;100.00;92249.09;2062659;28;20031;-77
2023/11/25 01:56:50;;;;;;;3.30;0.90;;;;;;;1.44;100.00;92254.72;2072784;28;20109;-78
2023/11/25 01:57:51;;;;;;;4.85;1.48;;;;;;;1.43;100.00;92250.59;2081016;28;20043;-77
2023/11/25 01:58:52;;;;;;;2.92;0.63;;;;;;;1.41;100.00;92252.13;2088026;28;20043;-75
2023/11/25 01:59:53;;;;;;;1.85;0.70;;;;;;;1.50;100.00;92250.59;2086395;28;20468;-76
2023/11/25 02:00:54;;;;;;;3.80;0.68;;;;;;;1.58;100.00;92248.72;2102802;28;20067;-76
2023/11/25 02:01:56;;;;;;;1.50;1.40;;;;;;;1.51;100.00;92249.47;2102629;28;20350;-77
2023/11/25 02:02:57;;;;;;;2.28;1.08;;;;;;;1.29;100.00;92252.50;2098484;28;20504;-77
2023/11/25 02:03:58;;;;;;;1.70;0.63;;;;;;;1.32;100.00;92241.97;2116380;27;20031;-78
2023/11/25 02:05:00;;;;;;;2.15;0.88;;;;;;;1.29;100.00;92241.97;2112623;28;20061;-77
2023/11/25 02:06:01;;;;;;;5.60;0.68;;;;;;;1.32;100.00;92257.00;2111996;28;20106;-77
2023/11/25 02:07:02;;;;;;;1.75;0.70;;;;;;;1.47;100.00;92256.63;2111874;28;20794;-76
2023/11/25 02:08:03;;;;;;;1.15;0.70;;;;;;;1.37;100.00;92254.00;2104479;28;20146;-78
2023/11/25 02:09:04;;;;;;;2.30;0.70;;;;;;;1.35;100.00;92241.22;2106642;28;20038;-77
2023/11/25 02:10:06;;;;;;;1.90;0.88;;;;;;;1.40;100.00;92251.34;2107873;28;20057;-78
2023/11/25 02:11:07;;;;;;;1.27;0.70;;;;;;;1.21;100.00;92262.28;2111994;28;20476;-76
2023/11/25 02:12:08;;;;;;;1.63;0.80;;;;;;;1.41;100.00;92249.50;2113224;28;20020;-78
2023/11/25 02:13:09;;;;;;;1.85;0.60;;;;;;;1.41;100.00;92260.78;2113332;28;20107;-76
2023/11/25 02:14:10;;;;;;;2.03;0.40;;;;;;;1.41;100.00;92266.03;2113104;28;20061;-77
2023/11/25 02:15:14;;;;;;;3.90;0.77;;;;;;;1.37;100.00;92269.81;2095636;28;20032;-77
2023/11/25 02:16:15;;;;;;;1.70;0.85;;;;;;;1.40;100.00;92266.41;2103876;28;20032;-76
2023/11/25 02:17:16;;;;;;;4.18;0.82;;;;;;;1.45;100.00;92263.41;2112967;27;20441;-77
2023/11/25 02:18:17;;;;;;;2.67;0.77;;;;;;;1.64;100.00;92267.50;2113118;28;20057;-75
2023/11/25 02:19:19;;;;;;;1.52;0.60;;;;;;;1.63;100.00;92258.84;2113133;28;20043;-78
2023/11/25 02:20:49;;;;;;;2.30;0.80;;;;;;;1.34;100.00;92266.03;2112728;28;20031;-77
2023/11/25 02:21:51;;;;;;;11.48;0.80;;;;;;;1.30;100.00;92265.28;2094771;28;20043;-76
2023/11/25 02:24:26;;;;;;;1.48;0.73;;;;;;;0.31;100.00;92252.81;2127995;27;20179;-76
2023/11/25 02:25:27;;;;;;;2.80;0.60;;;;;;;0.20;100.00;92258.78;2117322;28;20088;-77
2023/11/25 02:26:29;;;;;;;2.45;0.50;;;;;;;0.24;100.00;92264.06;2118668;28;20552;-77
2023/11/25 02:27:30;;;;;;;5.43;0.80;;;;;;;0.40;100.00;92259.22;2119008;28;20042;-78
2023/11/25 02:28:38;;;;;;;1.15;0.68;;;;;;;0.38;100.00;92264.09;2118921;28;20023;-76
2023/11/25 02:29:39;;;;;;;0.50;0.50;;;;;;;0.44;100.00;92280.25;2111191;28;20026;-80
2023/11/25 02:30:42;;;;;;;2.97;0.70;;;;;;;0.35;100.00;92270.13;2111402;28;20028;-79
2023/11/25 02:31:43;;;;;;;1.95;0.95;;;;;;;0.23;100.00;92268.56;2117136;28;20031;-77
2023/11/25 02:32:44;;;;;;;4.63;0.93;;;;;;;0.41;100.00;92260.72;2117470;28;20077;-79
2023/11/25 02:33:45;;;;;;;5.20;0.70;;;;;;;0.42;100.00;92262.22;2101745;28;20028;-78
2023/11/25 02:34:46;;;;;;;1.75;0.63;;;;;;;0.38;100.00;92264.09;2100707;28;20103;-78
2023/11/25 02:35:47;;;;;;;1.75;0.73;;;;;;;0.36;100.00;92268.22;2111015;28;20035;-76
2023/11/25 02:36:48;;;;;;;5.28;0.98;;;;;;;0.30;100.00;92267.06;2109079;28;20024;-78
2023/11/25 02:37:49;;;;;;;3.40;1.30;;;;;;;0.43;100.00;92257.72;2109956;28;21235;-78
2023/11/25 02:38:50;;;;;;;2.08;0.70;;;;;;;0.30;100.00;92261.81;2099388;28;20036;-77
2023/11/25 02:39:51;;;;;;;2.90;0.80;;;;;;;0.52;100.00;92263.38;2093460;28;20052;-78
2023/11/25 02:40:53;;;;;;;1.70;0.70;;;;;;;0.43;100.00;92261.09;2093984;28;20694;-79
2023/11/25 02:41:54;;;;;;;5.10;1.52;;;;;;;0.29;100.00;92257.69;2110984;28;20028;-78
2023/11/25 02:42:55;;;;;;;4.88;1.45;;;;;;;0.28;100.00;92256.94;2109500;28;20373;-80
2023/11/25 02:43:56;;;;;;;6.13;1.10;;;;;;;0.44;100.00;92265.25;2109758;28;20028;-78
2023/11/25 02:46:54;;;;;;;5.03;0.93;;;;;;;0.29;100.00;92262.94;2106870;28;20856;-77
2023/11/25 02:47:55;;;;;;;2.50;1.02;;;;;;;0.36;100.00;92257.72;2110643;28;20047;-77
2023/11/25 02:48:56;;;;;;;2.53;0.90;;;;;;;0.08;100.00;92261.75;2110428;28;20024;-78
2023/11/25 02:49:57;;;;;;;4.57;1.77;;;;;;;0.05;100.00;92267.00;2110755;28;21367;-78
2023/11/25 02:50:58;;;;;;;4.13;1.17;;;;;;;0.06;100.00;92271.13;2118576;28;20172;-78
2023/11/25 02:51:59;;;;;;;6.07;1.00;;;;;;;0.16;100.00;92259.91;2109933;28;20047;-77
2023/11/25 02:53:00;;;;;;;4.57;1.27;;;;;;;0.14;100.00;92268.16;2109665;28;20054;-78
2023/11/25 02:54:02;;;;;;;4.03;1.35;;;;;;;0.40;100.00;92277.63;2111574;28;20019;-79
2023/11/25 02:55:04;;;;;;;2.00;0.93;;;;;;;0.13;100.00;92284.28;2110312;28;20056;-77
2023/11/25 02:56:06;;;;;;;3.05;1.23;;;;;;;-0.01;100.00;92271.84;2111328;28;20028;-78
2023/11/25 02:57:11;;;;;;;5.75;1.30;;;;;;;0.01;100.00;92289.88;2108509;28;20020;-79
2023/11/25 02:58:13;;;;;;;5.05;1.30;;;;;;;0.05;100.00;92280.91;2109849;28;20039;-78
2023/11/25 02:59:17;;;;;;;5.72;1.20;;;;;;;-0.02;100.00;92280.88;2110388;28;20115;-79
2023/11/25 03:00:28;;;;;;;3.45;1.15;;;;;;;-0.08;100.00;92284.97;2111525;28;20112;-76
2023/11/25 03:01:30;;;;;;;2.45;1.85;;;;;;;-0.01;100.00;92291.00;2107055;28;20111;-77
2023/11/25 03:05:00;;;;;;;3.38;1.25;;;;;;;-0.05;100.00;92287.59;2109956;28;20044;-77
2023/11/25 03:06:01;;;;;;;3.20;1.08;;;;;;;0.02;100.00;92296.66;2109834;28;20030;-77
2023/11/25 03:07:04;;;;;;;9.20;1.70;;;;;;;0.08;100.00;92292.53;2110026;28;20111;-77
2023/11/25 03:08:06;;;;;;;3.90;1.33;;;;;;;0.12;100.00;92301.19;2096666;28;21312;-78
2023/11/25 03:09:09;;;;;;;6.75;1.27;;;;;;;0.02;100.00;92302.66;2092574;28;20079;-77
2023/11/25 03:10:10;;;;;;;8.40;0.85;;;;;;;0.22;100.00;92290.72;2108540;28;20590;-78
2023/11/25 03:11:18;;;;;;;3.75;1.85;;;;;;;0.28;100.00;92301.63;2118426;28;20130;-78
2023/11/25 03:12:19;;;;;;;10.13;1.58;;;;;;;0.11;100.00;92299.69;2111031;28;20031;-76
2023/11/25 03:13:20;;;;;;;4.63;1.10;;;;;;;0.17;100.00;92295.56;2110288;28;20050;-78
2023/11/25 03:14:22;;;;;;;5.20;1.67;;;;;;;0.30;100.00;92302.00;2109689;28;20023;-77
2023/11/25 03:15:23;;;;;;;3.22;1.05;;;;;;;0.21;100.00;92296.31;2118533;28;20148;-78
2023/11/25 03:16:24;;;;;;;7.03;1.25;;;;;;;0.07;100.00;92314.69;2113783;28;20160;-79
2023/11/25 03:17:28;;;;;;;5.13;1.20;;;;;;;0.17;100.00;92309.44;2108093;28;20028;-76
2023/11/25 03:18:31;;;;;;;2.42;1.10;;;;;;;0.28;100.00;92308.75;2090535;28;20028;-77
2023/11/25 03:19:32;;;;;;;3.70;1.13;;;;;;;0.15;100.00;92311.72;2094019;28;20039;-78
2023/11/25 03:20:34;;;;;;;2.45;1.10;;;;;;;0.15;100.00;92313.59;2102656;28;20020;-76
2023/11/25 03:21:35;;;;;;;2.78;0.93;;;;;;;0.15;100.00;92319.59;2109269;28;20072;-78
2023/11/25 03:22:36;;;;;;;4.47;1.08;;;;;;;0.08;100.00;92316.91;2111600;28;20120;-79
2023/11/25 03:23:40;;;;;;;2.15;1.02;;;;;;;0.24;100.00;92324.50;2110343;28;20118;-79
2023/11/25 03:24:41;;;;;;;6.60;1.20;;;;;;;0.19;100.00;92330.13;2108526;28;20082;-77
2023/11/25 03:25:42;;;;;;;6.45;1.40;;;;;;;0.23;100.00;92333.53;2109040;28;20135;-77
2023/11/25 03:26:43;;;;;;;7.95;1.10;;;;;;;0.22;100.00;92340.66;2110883;28;20086;-76
2023/11/25 03:27:44;;;;;;;6.68;1.65;;;;;;;0.16;100.00;92342.09;2110579;28;20036;-77
2023/11/25 03:29:36;;;;;;;4.85;1.30;;;;;;;0.24;100.00;92342.91;2109011;28;20023;-76
2023/11/25 03:30:37;;;;;;;1.67;1.10;;;;;;;0.43;100.00;92347.84;2110189;28;20074;-77
2023/11/25 03:31:42;;;;;;;5.22;1.00;;;;;;;0.44;100.00;92346.75;2109195;28;21070;-77
2023/11/25 03:32:43;;;;;;;5.72;1.20;;;;;;;0.48;100.00;92344.88;2110238;28;20096;-80
2023/11/25 03:33:44;;;;;;;2.30;1.35;;;;;;;0.36;100.00;92347.84;2110717;28;20019;-78
2023/11/25 03:34:46;;;;;;;4.25;1.95;;;;;;;0.25;100.00;92353.03;2110353;28;21175;-77
2023/11/25 03:35:46;;;;;;;6.82;1.55;;;;;;;0.24;100.00;92351.53;2104924;28;20028;-77
2023/11/25 03:36:47;;;;;;;5.85;1.10;;;;;;;0.14;100.00;92354.13;2104283;28;20059;-76
2023/11/25 03:38:13;;;;;;;5.10;1.02;;;;;;;0.17;100.00;92356.00;2104321;28;20240;-78
2023/11/25 03:39:14;;;;;;;5.55;0.90;;;;;;;0.32;100.00;92352.31;2109728;28;20035;-77
2023/11/25 03:40:15;;;;;;;4.85;1.13;;;;;;;0.19;100.00;92366.91;2106145;28;20066;-76
2023/11/25 03:41:17;;;;;;;4.95;1.20;;;;;;;0.22;100.00;92360.91;2105362;28;20071;-79
2023/11/25 03:42:20;;;;;;;4.38;1.17;;;;;;;0.23;100.00;92360.53;2106801;28;20066;-77
2023/11/25 03:43:21;;;;;;;3.20;0.80;;;;;;;0.30;100.00;92367.69;2100569;28;20126;-77
2023/11/25 03:44:22;;;;;;;3.05;1.00;;;;;;;0.13;100.00;92363.09;2090315;28;20031;-77
2023/11/25 03:45:23;;;;;;;3.35;1.02;;;;;;;0.25;100.00;92362.78;2102910;28;20035;-77
2023/11/25 03:46:24;;;;;;;2.72;1.15;;;;;;;0.31;100.00;92363.19;2112762;28;20033;-76
2023/11/25 03:47:25;;;;;;;6.00;1.05;;;;;;;0.23;100.00;92359.78;2103666;28;21335;-77
2023/11/25 03:48:26;;;;;;;3.95;1.00;;;;;;;0.12;100.00;92378.13;2095588;28;20032;-77
2023/11/25 03:49:27;;;;;;;4.95;1.08;;;;;;;0.14;100.00;92369.91;2105204;28;20047;-78
2023/11/25 03:50:28;;;;;;;8.43;1.40;;;;;;;0.31;100.00;92371.06;2103903;28;20020;-77
2023/11/25 03:51:29;;;;;;;1.67;1.10;;;;;;;0.12;100.00;92377.38;2103691;28;20038;-76
2023/11/25 03:52:32;;;;;;;3.10;0.90;;;;;;;0.06;100.00;92382.22;2104796;28;20028;-78
2023/11/25 03:53:33;;;;;;;3.30;1.10;;;;;;;0.03;100.00;92372.44;2099830;28;21072;-76
2023/11/25 03:54:33;;;;;;;3.15;0.82;;;;;;;0.16;100.00;92375.53;2091983;28;20028;-78
2023/11/25 03:55:34;;;;;;;4.85;1.00;;;;;;;0.11;100.00;92375.88;2104178;28;20020;-76
2023/11/25 03:56:38;;;;;;;4.95;0.98;;;;;;;0.08;100.00;92373.97;2101307;28;20031;-77
2023/11/25 03:57:39;;;;;;;4.60;0.85;;;;;;;0.11;100.00;92376.63;2101978;28;20071;-77
2023/11/25 03:58:48;;;;;;;6.65;1.17;;;;;;;-0.05;100.00;92376.91;2041285;28;20036;-77
2023/11/25 03:59:48;;;;;;;1.83;0.80;;;;;;;-0.14;100.00;92378.34;2018993;28;20040;-77
2023/11/25 04:02:53;;;;;;;3.30;1.15;;;;;;;0.10;100.00;92371.75;2034129;28;20043;-76
2023/11/25 04:03:53;;;;;;;5.78;1.00;;;;;;;0.15;100.00;92380.03;2031536;28;20031;-78
2023/11/25 04:04:54;;;;;;;4.43;1.00;;;;;;;0.24;100.00;92383.06;2035820;28;20028;-78
2023/11/25 04:06:39;;;;;;;3.55;0.80;;;;;;;0.29;100.00;92384.59;2047124;28;20024;-77
2023/11/25 04:08:24;;;;;;;3.63;1.20;;;;;;;0.19;100.00;92383.44;2063740;28;20036;-77
2023/11/25 04:09:25;;;;;;;4.88;0.90;;;;;;;0.19;100.00;92385.31;2074401;28;20137;-79
2023/11/25 04:10:27;;;;;;;4.50;0.80;;;;;;;0.31;100.00;92386.84;2076701;28;20044;-78
2023/11/25 04:11:27;;;;;;;7.80;1.20;;;;;;;0.15;100.00;92384.53;2069152;28;20036;-78
2023/11/25 04:12:29;;;;;;;4.00;0.90;;;;;;;0.20;100.00;92381.53;2089236;28;20434;-77
2023/11/25 04:14:19;;;;;;;4.47;1.13;;;;;;;0.22;100.00;92385.31;2097520;28;20028;-76
2023/11/25 04:17:08;;;;;;;4.28;0.70;;;;;;;0.17;100.00;92387.53;2099237;28;20485;-77
2023/11/25 04:18:09;;;;;;;8.15;0.80;;;;;;;0.02;100.00;92391.97;2104343;28;20020;-77
2023/11/25 04:19:16;;;;;;;3.30;0.95;;;;;;;0.04;100.00;92386.34;2104939;28;20023;-77
2023/11/25 04:20:28;;;;;;;8.25;1.38;;;;;;;0.06;100.00;92387.47;2104127;28;20028;-78
2023/11/25 04:21:29;;;;;;;2.92;0.88;;;;;;;0.07;100.00;92386.34;2096717;28;20043;-78
2023/11/25 04:24:31;;;;;;;5.93;1.15;;;;;;;-0.13;100.00;92395.59;2093624;28;20127;-78
2023/11/25 04:25:33;;;;;;;5.70;1.27;;;;;;;-0.07;100.00;92394.16;2098909;28;20863;-78
2023/11/25 04:26:36;;;;;;;2.85;1.23;;;;;;;0.10;100.00;92392.75;2098612;28;20130;-77
2023/11/25 04:27:40;;;;;;;4.03;1.00;;;;;;;-0.08;100.00;92403.91;2109185;28;20016;-77
2023/11/25 04:28:43;;;;;;;6.38;1.05;;;;;;;-0.08;100.00;92409.16;2103921;28;20101;-77
2023/11/25 04:29:44;;;;;;;7.32;1.30;;;;;;;-0.10;100.00;92406.16;2104769;28;20024;-78
2023/11/25 04:30:45;;;;;;;4.30;1.05;;;;;;;-0.07;100.00;92407.28;2105035;28;20411;-79
2023/11/25 04:31:49;;;;;;;2.15;1.10;;;;;;;-0.14;100.00;92413.25;2104666;28;20123;-77
2023/11/25 04:32:51;;;;;;;4.18;1.27;;;;;;;0.01;100.00;92408.84;2104641;28;20027;-78
2023/11/25 04:33:51;;;;;;;2.97;1.20;;;;;;;-0.01;100.00;92414.44;2094482;28;20104;-77
2023/11/25 04:34:55;;;;;;;7.82;1.45;;;;;;;-0.08;100.00;92414.44;2103869;28;20384;-76
2023/11/25 04:39:51;;;;;;;7.80;1.02;;;;;;;-0.09;100.00;92423.44;2104339;28;20024;-79
2023/11/25 04:40:52;;;;;;;1.33;0.80;;;;;;;-0.17;100.00;92429.75;2022640;28;20091;-77
2023/11/25 04:41:53;;;;;;;5.65;0.80;;;;;;;-0.22;100.00;92435.34;1996478;28;20258;-77
2023/11/25 04:42:54;;;;;;;6.97;0.98;;;;;;;-0.30;100.00;92431.91;2004237;28;23358;-78
2023/11/25 04:43:56;;;;;;;8.27;0.98;;;;;;;-0.24;100.00;92434.94;2015529;28;20493;-76
2023/11/25 04:44:57;;;;;;;3.97;1.05;;;;;;;-0.15;100.00;92435.38;2028496;28;24400;-78
2023/11/25 04:45:59;;;;;;;3.80;1.10;;;;;;;-0.09;100.00;92436.56;2030161;28;20059;-76
2023/11/25 04:47:00;;;;;;;5.35;1.23;;;;;;;-0.03;100.00;92434.34;2018506;28;23100;-78
2023/11/25 04:48:01;;;;;;;4.88;0.70;;;;;;;-0.05;100.00;92439.94;2014020;28;23815;-77
2023/11/25 04:49:04;;;;;;;4.68;1.52;;;;;;;0.00;100.00;92433.63;2028448;28;20115;-77
2023/11/25 04:50:05;;;;;;;6.18;1.38;;;;;;;-0.13;100.00;92435.00;2037425;28;20039;-78
2023/11/25 04:51:06;;;;;;;3.10;0.82;;;;;;;-0.20;100.00;92435.72;2031886;28;20595;-78
2023/11/25 04:52:07;;;;;;;6.13;1.00;;;;;;;-0.07;100.00;92434.31;2066900;28;20040;-78
2023/11/25 04:53:08;;;;;;;1.90;0.90;;;;;;;0.05;100.00;92433.28;2086038;28;20111;-79
2023/11/25 04:54:09;;;;;;;6.47;1.05;;;;;;;0.00;100.00;92436.25;2045402;28;20036;-77
2023/11/25 04:55:14;;;;;;;2.53;0.90;;;;;;;0.17;100.00;92429.56;2012828;28;20028;-77
2023/11/25 04:56:16;;;;;;;6.07;1.63;;;;;;;0.10;100.00;92424.28;2017519;28;20420;-78
2023/11/25 04:57:18;;;;;;;6.20;1.60;;;;;;;0.14;100.00;92430.31;2037381;28;20735;-77
2023/11/25 04:58:19;;;;;;;5.55;1.10;;;;;;;0.33;100.00;92424.03;2036781;28;20058;-78
2023/11/25 04:59:20;;;;;;;4.43;0.82;;;;;;;0.26;100.00;92424.75;2033801;28;22807;-77
2023/11/25 05:00:21;;;;;;;3.75;1.23;;;;;;;0.13;100.00;92423.53;2029364;28;20124;-78
2023/11/25 05:01:22;;;;;;;5.18;1.20;;;;;;;0.08;100.00;92418.63;2037693;28;20031;-77
2023/11/25 05:02:23;;;;;;;4.80;1.00;;;;;;;-0.24;100.00;92423.69;2061747;28;20056;-77
2023/11/25 05:03:25;;;;;;;6.80;1.00;;;;;;;-0.22;100.00;92430.09;2066704;28;20024;-78
2023/11/25 05:04:27;;;;;;;2.22;0.70;;;;;;;-0.35;100.00;92427.00;2073083;28;20024;-79
2023/11/25 05:05:28;;;;;;;3.13;1.00;;;;;;;-0.38;100.00;92432.97;2078873;28;20039;-77
2023/11/25 05:06:29;;;;;;;3.58;1.15;;;;;;;-0.22;100.00;92429.31;2089514;28;20044;-77
2023/11/25 05:07:31;;;;;;;5.47;1.45;;;;;;;-0.24;100.00;92428.94;2105847;28;20012;-77
2023/11/25 05:08:32;;;;;;;3.25;1.55;;;;;;;-0.33;100.00;92434.50;2106102;28;20089;-78
2023/11/25 05:09:35;;;;;;;2.33;0.98;;;;;;;-0.37;100.00;92436.34;2112608;28;20136;-77
2023/11/25 05:10:36;;;;;;;5.15;1.50;;;;;;;-0.46;100.00;92446.41;2103789;28;20020;-77
2023/11/25 05:11:37;;;;;;;6.68;1.48;;;;;;;-0.51;100.00;92442.97;2103003;28;20025;-78
2023/11/25 05:12:41;;;;;;;5.85;1.90;;;;;;;-0.44;100.00;92444.16;2103198;28;20059;-77
2023/11/25 05:13:42;;;;;;;3.83;1.40;;;;;;;-0.46;100.00;92444.53;2100147;28;20020;-78
2023/11/25 05:14:43;;;;;;;11.93;1.80;;;;;;;-0.33;100.00;92439.75;2104240;28;20024;-78
2023/11/25 05:15:44;;;;;;;3.95;1.15;;;;;;;-0.47;100.00;92442.25;2105438;28;20054;-78
2023/11/25 05:16:46;;;;;;;4.32;1.13;;;;;;;-0.51;100.00;92437.72;2104649;28;20035;-77
2023/11/25 05:17:48;;;;;;;7.20;1.05;;;;;;;-0.59;100.00;92441.41;2105630;28;20408;-80
2023/11/25 05:18:48;;;;;;;5.53;2.03;;;;;;;-0.63;100.00;92447.75;2104921;28;20027;-77
2023/11/25 05:19:49;;;;;;;3.78;1.83;;;;;;;-0.63;100.00;92443.25;2104988;28;20028;-77
2023/11/25 05:20:51;;;;;;;4.07;3.13;;;;;;;-0.43;100.00;92449.06;2097224;28;20127;-77
2023/11/25 05:21:52;;;;;;;2.60;1.90;;;;;;;-0.54;100.00;92450.81;2090805;28;20032;-78
2023/11/25 05:22:53;;;;;;;5.88;2.53;;;;;;;-0.68;100.00;92446.19;2097491;28;20824;-78